Time;durP1;ratioP1;P1;durP2;ratioP2;P2;SDS_P1;SDS_P2;PMS_P1;PMS_P2;Temp;Humidity;BMP_temperature;BMP_pressure;BME280_temperature;BME280_humidity;BME280_pressure;Samples;Min_cycle;Max_cycle;Signal;HPM_P1;HPM_P2
2022/10/24 00:01:28;;;;;;;14.07;8.70;;;;;;;;;;5033378;28;20056;-81
2022/10/24 00:03:54;;;;;;;10.95;7.80;;;;;;;;;;5033522;28;20028;-82
2022/10/24 00:06:20;;;;;;;12.98;8.38;;;;;;;;;;5033340;28;20044;-79
2022/10/24 00:08:47;;;;;;;14.48;8.85;;;;;;;;;;5033583;28;20087;-80
2022/10/24 00:11:31;;;;;;;13.27;9.23;;;;;;;;;;5028410;28;20471;-81
2022/10/24 00:13:58;;;;;;;15.25;8.98;;;;;;;;;;5037013;28;20049;-79
2022/10/24 00:16:24;;;;;;;15.55;8.98;;;;;;;;;;5039118;28;20120;-80
2022/10/24 00:18:50;;;;;;;17.77;10.18;;;;;;;;;;5033227;28;20079;-81
2022/10/24 00:21:17;;;;;;;12.60;8.57;;;;;;;;;;5033349;28;20048;-79
2022/10/24 00:23:43;;;;;;;14.73;9.68;;;;;;;;;;5033538;28;20017;-82
2022/10/24 00:26:10;;;;;;;13.45;9.18;;;;;;;;;;5033746;28;20394;-81
2022/10/24 00:28:36;;;;;;;13.55;9.60;;;;;;;;;;5033979;28;20017;-80
2022/10/24 00:31:04;;;;;;;15.02;10.30;;;;;;;;;;5034084;28;20025;-80
2022/10/24 00:33:30;;;;;;;13.95;9.52;;;;;;;;;;5033435;28;20025;-78
2022/10/24 00:35:56;;;;;;;16.83;9.38;;;;;;;;;;5019802;28;20080;-81
2022/10/24 00:38:22;;;;;;;15.75;10.57;;;;;;;;;;5033069;28;20163;-79
2022/10/24 00:40:49;;;;;;;15.02;9.93;;;;;;;;;;5030323;28;20021;-80
2022/10/24 00:43:16;;;;;;;15.48;9.05;;;;;;;;;;5032880;28;20021;-80
2022/10/24 00:45:55;;;;;;;15.75;9.88;;;;;;;;;;5030878;28;20021;-81
2022/10/24 00:48:24;;;;;;;15.45;10.70;;;;;;;;;;5045902;28;20037;-81
2022/10/24 00:50:52;;;;;;;16.48;9.90;;;;;;;;;;5033463;28;20464;-80
2022/10/24 00:53:19;;;;;;;16.30;10.23;;;;;;;;;;5043459;28;20026;-79
2022/10/24 00:55:47;;;;;;;14.05;10.05;;;;;;;;;;5042644;28;20037;-80
2022/10/24 00:58:14;;;;;;;17.17;10.65;;;;;;;;;;5039658;28;20018;-80
2022/10/24 01:00:40;;;;;;;15.48;10.23;;;;;;;;;;5032404;28;20029;-78
2022/10/24 01:03:07;;;;;;;14.52;10.40;;;;;;;;;;5032732;28;20104;-79
2022/10/24 01:05:38;;;;;;;13.48;11.07;;;;;;;;;;5021151;28;20391;-81
2022/10/24 01:08:22;;;;;;;15.20;9.98;;;;;;;;;;5031526;28;20021;-80
2022/10/24 01:10:54;;;;;;;16.42;11.40;;;;;;;;;;5031790;28;20041;-80
2022/10/24 01:13:39;;;;;;;22.15;10.52;;;;;;;;;;5034138;28;20459;-81
2022/10/24 01:16:11;;;;;;;15.07;11.32;;;;;;;;;;5033499;28;20473;-81
2022/10/24 01:18:45;;;;;;;16.02;10.88;;;;;;;;;;5032316;28;20018;-80
2022/10/24 01:21:17;;;;;;;14.70;10.63;;;;;;;;;;5031994;28;20079;-80
2022/10/24 01:23:52;;;;;;;24.25;12.52;;;;;;;;;;5023841;28;20018;-80
2022/10/24 01:26:27;;;;;;;18.92;12.80;;;;;;;;;;5027019;28;20033;-81
2022/10/24 01:29:01;;;;;;;17.13;13.32;;;;;;;;;;5028183;28;20233;-80
2022/10/24 01:31:29;;;;;;;18.85;12.07;;;;;;;;;;5030689;28;20034;-80
2022/10/24 01:33:59;;;;;;;18.45;10.68;;;;;;;;;;5038060;28;20033;-80
2022/10/24 01:36:37;;;;;;;18.58;12.45;;;;;;;;;;5033423;28;20037;-80
2022/10/24 01:39:06;;;;;;;17.70;11.43;;;;;;;;;;5031742;28;20021;-80
2022/10/24 01:41:32;;;;;;;20.58;12.57;;;;;;;;;;5018048;28;20034;-81
2022/10/24 01:44:11;;;;;;;20.63;11.95;;;;;;;;;;5018040;28;20014;-81
2022/10/24 01:46:39;;;;;;;19.55;13.68;;;;;;;;;;5027863;28;20028;-80
2022/10/24 01:49:13;;;;;;;21.20;13.25;;;;;;;;;;5024222;28;20025;-79
2022/10/24 01:51:40;;;;;;;19.77;12.45;;;;;;;;;;5031809;28;20053;-79
2022/10/24 01:54:07;;;;;;;18.75;14.40;;;;;;;;;;5031709;28;20021;-82
2022/10/24 01:56:33;;;;;;;22.42;14.30;;;;;;;;;;5027369;28;20499;-80
2022/10/24 01:59:22;;;;;;;22.58;14.48;;;;;;;;;;5028477;28;20022;-81
2022/10/24 02:01:49;;;;;;;21.50;14.88;;;;;;;;;;5026341;28;20068;-81
2022/10/24 02:04:15;;;;;;;19.42;13.75;;;;;;;;;;5032217;28;20021;-81
2022/10/24 02:06:42;;;;;;;23.67;14.65;;;;;;;;;;5031876;28;20481;-80
2022/10/24 02:09:10;;;;;;;24.75;15.07;;;;;;;;;;5029293;28;20032;-80
2022/10/24 02:11:37;;;;;;;20.95;15.13;;;;;;;;;;5024094;28;20065;-81
2022/10/24 02:14:12;;;;;;;23.92;15.93;;;;;;;;;;5030211;28;20109;-80
2022/10/24 02:16:38;;;;;;;23.30;16.08;;;;;;;;;;5030894;28;20071;-81
2022/10/24 02:19:04;;;;;;;21.33;14.88;;;;;;;;;;5029710;28;20021;-80
2022/10/24 02:21:33;;;;;;;25.50;15.68;;;;;;;;;;5035664;28;20112;-81
2022/10/24 02:24:00;;;;;;;26.15;16.85;;;;;;;;;;5036376;28;20037;-80
2022/10/24 02:26:32;;;;;;;26.03;16.10;;;;;;;;;;5037766;28;20041;-81
2022/10/24 02:29:01;;;;;;;27.58;15.95;;;;;;;;;;5035635;28;20022;-80
2022/10/24 02:31:31;;;;;;;24.25;16.77;;;;;;;;;;5035755;28;20072;-81
2022/10/24 02:33:57;;;;;;;20.60;14.50;;;;;;;;;;5036597;28;20022;-80
2022/10/24 02:36:25;;;;;;;26.00;16.35;;;;;;;;;;5035996;28;20482;-79
2022/10/24 02:38:53;;;;;;;27.10;17.48;;;;;;;;;;5035373;28;20029;-80
2022/10/24 02:41:22;;;;;;;26.83;17.35;;;;;;;;;;5035570;28;20029;-81
2022/10/24 02:43:49;;;;;;;27.27;16.40;;;;;;;;;;5030785;28;20068;-81
2022/10/24 02:46:16;;;;;;;32.67;19.40;;;;;;;;;;5015047;28;20021;-81
2022/10/24 02:48:44;;;;;;;29.67;19.55;;;;;;;;;;5021120;28;20474;-80
2022/10/24 02:51:12;;;;;;;35.80;17.73;;;;;;;;;;5033876;28;20073;-80
2022/10/24 02:53:41;;;;;;;27.95;16.98;;;;;;;;;;5041540;28;20037;-79
2022/10/24 02:56:07;;;;;;;25.90;16.38;;;;;;;;;;5036160;28;20029;-80
2022/10/24 02:58:33;;;;;;;27.40;18.17;;;;;;;;;;5034880;28;20040;-79
2022/10/24 03:00:59;;;;;;;27.13;17.88;;;;;;;;;;5029924;28;20053;-79
2022/10/24 03:03:26;;;;;;;29.88;18.58;;;;;;;;;;5026125;28;20029;-79
2022/10/24 03:05:52;;;;;;;28.63;16.83;;;;;;;;;;5034897;28;20029;-80
2022/10/24 03:08:18;;;;;;;30.33;16.30;;;;;;;;;;5035122;28;20018;-79
2022/10/24 03:10:44;;;;;;;26.92;16.35;;;;;;;;;;5035346;28;20104;-79
2022/10/24 03:13:10;;;;;;;23.55;13.80;;;;;;;;;;5038242;28;20552;-80
2022/10/24 03:15:36;;;;;;;25.45;15.95;;;;;;;;;;5037304;28;20518;-82
2022/10/24 03:18:02;;;;;;;20.52;14.85;;;;;;;;;;5037510;28;20021;-78
2022/10/24 03:20:28;;;;;;;25.67;15.30;;;;;;;;;;5044951;28;20528;-80
2022/10/24 03:22:55;;;;;;;21.17;14.60;;;;;;;;;;5034345;28;20026;-79
2022/10/24 03:25:21;;;;;;;22.92;16.33;;;;;;;;;;5027137;28;20079;-80
2022/10/24 03:27:47;;;;;;;25.05;15.55;;;;;;;;;;5031654;28;20022;-81
2022/10/24 03:30:13;;;;;;;25.65;16.10;;;;;;;;;;5034513;28;20075;-79
2022/10/24 03:32:39;;;;;;;23.67;14.02;;;;;;;;;;5034164;28;20041;-81
2022/10/24 03:35:05;;;;;;;24.60;14.85;;;;;;;;;;5034172;28;20181;-79
2022/10/24 03:37:31;;;;;;;23.27;14.05;;;;;;;;;;5036089;28;20499;-80
2022/10/24 03:39:58;;;;;;;20.20;14.13;;;;;;;;;;5037208;28;20025;-78
2022/10/24 03:42:24;;;;;;;17.92;12.82;;;;;;;;;;5036542;28;20049;-79
2022/10/24 03:44:50;;;;;;;21.70;13.63;;;;;;;;;;5034482;28;20136;-80
2022/10/24 03:47:16;;;;;;;17.38;13.02;;;;;;;;;;5028497;28;20032;-79
2022/10/24 03:49:42;;;;;;;19.77;12.02;;;;;;;;;;5037920;28;20037;-80
2022/10/24 03:52:08;;;;;;;18.23;11.60;;;;;;;;;;5035939;28;20356;-82
2022/10/24 03:54:35;;;;;;;18.77;12.10;;;;;;;;;;5037608;28;20394;-80
2022/10/24 03:57:01;;;;;;;21.33;12.65;;;;;;;;;;5035005;28;20041;-81
2022/10/24 03:59:27;;;;;;;16.50;11.65;;;;;;;;;;5029470;28;20022;-80
2022/10/24 04:01:58;;;;;;;16.10;11.65;;;;;;;;;;5041711;28;20025;-80
2022/10/24 04:04:24;;;;;;;17.20;10.15;;;;;;;;;;5033848;28;20021;-79
2022/10/24 04:06:50;;;;;;;20.50;11.98;;;;;;;;;;5033965;28;20064;-80
2022/10/24 04:09:16;;;;;;;17.50;10.75;;;;;;;;;;5033171;28;20032;-79
2022/10/24 04:11:50;;;;;;;16.25;10.02;;;;;;;;;;5030934;28;20022;-79
2022/10/24 04:14:16;;;;;;;15.60;9.98;;;;;;;;;;5031674;28;20422;-80
2022/10/24 04:16:42;;;;;;;13.85;9.98;;;;;;;;;;5036880;28;20120;-80
2022/10/24 04:19:09;;;;;;;17.25;11.10;;;;;;;;;;5034847;28;20025;-81
2022/10/24 04:21:35;;;;;;;17.25;10.98;;;;;;;;;;5033680;28;20037;-80
2022/10/24 04:24:02;;;;;;;14.07;10.05;;;;;;;;;;5033432;28;20024;-79
2022/10/24 04:26:28;;;;;;;12.02;9.00;;;;;;;;;;5033033;28;20181;-82
2022/10/24 04:28:54;;;;;;;8.82;7.45;;;;;;;;;;5033581;28;20473;-80
2022/10/24 04:31:23;;;;;;;12.00;9.45;;;;;;;;;;5032709;28;20112;-81
2022/10/24 04:33:49;;;;;;;15.98;8.80;;;;;;;;;;5032450;28;20083;-81
2022/10/24 04:36:15;;;;;;;13.55;7.60;;;;;;;;;;5032328;28;20037;-81
2022/10/24 04:38:41;;;;;;;12.57;8.63;;;;;;;;;;5031340;28;20391;-80
2022/10/24 04:41:07;;;;;;;15.77;8.75;;;;;;;;;;5032803;28;20048;-82
2022/10/24 04:43:34;;;;;;;14.38;7.72;;;;;;;;;;5033318;28;20021;-81
2022/10/24 04:46:01;;;;;;;13.07;7.53;;;;;;;;;;5034008;28;20021;-83
2022/10/24 04:48:27;;;;;;;8.80;6.97;;;;;;;;;;5034565;28;20470;-79
2022/10/24 04:50:56;;;;;;;9.57;7.70;;;;;;;;;;5038655;28;20045;-80
2022/10/24 04:53:22;;;;;;;14.90;8.60;;;;;;;;;;5046036;28;20021;-82
2022/10/24 04:55:49;;;;;;;9.45;6.72;;;;;;;;;;5040741;28;20021;-81
2022/10/24 04:58:15;;;;;;;11.30;7.25;;;;;;;;;;5033596;28;20029;-81
2022/10/24 05:00:45;;;;;;;10.32;6.93;;;;;;;;;;5032782;28;20030;-80
2022/10/24 05:03:11;;;;;;;10.82;7.75;;;;;;;;;;5034652;28;20021;-81
2022/10/24 05:05:38;;;;;;;9.95;7.80;;;;;;;;;;5041336;28;20045;-83
2022/10/24 05:08:04;;;;;;;9.00;7.05;;;;;;;;;;5031495;28;20028;-81
2022/10/24 05:10:30;;;;;;;8.57;6.82;;;;;;;;;;5032690;28;20029;-79
2022/10/24 05:12:56;;;;;;;8.55;6.53;;;;;;;;;;5032399;28;20540;-81
2022/10/24 05:15:22;;;;;;;9.68;6.60;;;;;;;;;;5032703;28;20030;-81
2022/10/24 05:17:49;;;;;;;8.23;6.65;;;;;;;;;;5032013;28;20036;-81
2022/10/24 05:20:16;;;;;;;11.23;7.90;;;;;;;;;;5033426;28;20026;-80
2022/10/24 05:22:42;;;;;;;7.15;6.13;;;;;;;;;;5036005;28;20040;-80
2022/10/24 05:25:08;;;;;;;10.52;7.40;;;;;;;;;;5030077;28;20025;-82
2022/10/24 05:27:34;;;;;;;9.50;6.43;;;;;;;;;;5044648;28;20075;-82
2022/10/24 05:30:01;;;;;;;10.00;7.78;;;;;;;;;;5030184;28;20040;-81
2022/10/24 05:32:27;;;;;;;11.15;7.68;;;;;;;;;;5031563;28;20071;-80
2022/10/24 05:34:53;;;;;;;10.15;7.15;;;;;;;;;;5032746;28;20021;-81
2022/10/24 05:37:19;;;;;;;12.65;8.20;;;;;;;;;;5032460;28;20477;-80
2022/10/24 05:39:45;;;;;;;11.90;8.60;;;;;;;;;;5033406;28;20018;-80
2022/10/24 05:42:11;;;;;;;13.40;7.57;;;;;;;;;;5032240;28;20021;-79
2022/10/24 05:44:37;;;;;;;10.27;7.05;;;;;;;;;;5032059;28;20025;-83
2022/10/24 05:47:03;;;;;;;11.82;7.35;;;;;;;;;;5028651;28;20028;-81
2022/10/24 05:49:30;;;;;;;13.57;7.35;;;;;;;;;;5035034;28;20032;-79
2022/10/24 05:51:56;;;;;;;12.85;7.85;;;;;;;;;;5036729;28;20387;-82
2022/10/24 05:54:22;;;;;;;10.73;7.75;;;;;;;;;;5035903;28;20029;-81
2022/10/24 05:56:48;;;;;;;10.52;7.57;;;;;;;;;;5036124;28;20407;-83
2022/10/24 05:59:14;;;;;;;12.65;8.73;;;;;;;;;;5035670;28;20033;-82
2022/10/24 06:01:41;;;;;;;10.98;7.78;;;;;;;;;;5035807;28;20041;-80
2022/10/24 06:04:07;;;;;;;10.77;7.70;;;;;;;;;;5035421;28;20103;-79
2022/10/24 06:06:37;;;;;;;13.90;7.68;;;;;;;;;;5035357;28;20483;-84
2022/10/24 06:09:04;;;;;;;11.70;8.48;;;;;;;;;;5037222;28;20025;-82
2022/10/24 06:11:30;;;;;;;12.13;7.00;;;;;;;;;;5035757;28;20029;-81
2022/10/24 06:13:56;;;;;;;10.23;7.15;;;;;;;;;;5033948;28;20048;-81
2022/10/24 06:16:23;;;;;;;10.82;7.47;;;;;;;;;;5036120;28;20033;-81
2022/10/24 06:18:50;;;;;;;12.93;7.63;;;;;;;;;;5035659;28;20445;-79
2022/10/24 06:21:17;;;;;;;12.23;8.30;;;;;;;;;;5037115;28;20047;-82
2022/10/24 06:23:43;;;;;;;11.75;7.95;;;;;;;;;;5036554;28;20022;-83
2022/10/24 06:26:10;;;;;;;8.60;7.20;;;;;;;;;;5037524;28;20207;-81
2022/10/24 06:28:37;;;;;;;12.02;8.63;;;;;;;;;;5041191;28;20108;-83
2022/10/24 06:31:03;;;;;;;14.10;9.52;;;;;;;;;;5034510;28;20017;-81
2022/10/24 06:33:30;;;;;;;15.48;8.60;;;;;;;;;;5031114;28;20033;-81
2022/10/24 06:35:59;;;;;;;13.52;8.25;;;;;;;;;;5050158;28;20440;-84
2022/10/24 06:38:26;;;;;;;12.73;7.45;;;;;;;;;;5036504;28;20040;-85
2022/10/24 06:40:52;;;;;;;11.27;7.70;;;;;;;;;;5039968;28;20051;-84
2022/10/24 06:43:18;;;;;;;13.02;9.38;;;;;;;;;;5036304;28;20026;-86
2022/10/24 06:45:45;;;;;;;9.95;8.05;;;;;;;;;;5037003;28;20061;-86
2022/10/24 06:48:11;;;;;;;13.40;9.57;;;;;;;;;;5046574;28;20066;-87
2022/10/24 06:50:39;;;;;;;12.60;8.02;;;;;;;;;;5052761;28;20042;-83
2022/10/24 06:53:10;;;;;;;11.27;6.70;;;;;;;;;;5050507;28;20021;-88
2022/10/24 06:55:39;;;;;;;9.68;7.20;;;;;;;;;;5040464;28;20148;-85
2022/10/24 06:58:07;;;;;;;9.65;7.85;;;;;;;;;;5034463;28;20041;-83
2022/10/24 07:00:34;;;;;;;10.70;7.00;;;;;;;;;;5035241;28;20034;-82
2022/10/24 07:03:00;;;;;;;8.63;5.85;;;;;;;;;;5035860;28;20018;-82
2022/10/24 07:05:26;;;;;;;8.63;6.88;;;;;;;;;;5036797;28;20026;-81
2022/10/24 07:07:52;;;;;;;12.05;7.72;;;;;;;;;;5034437;28;20371;-83
2022/10/24 07:10:19;;;;;;;10.52;7.38;;;;;;;;;;5034313;28;20581;-83
2022/10/24 07:12:45;;;;;;;10.88;6.50;;;;;;;;;;5034587;28;20025;-85
2022/10/24 07:15:11;;;;;;;8.45;6.80;;;;;;;;;;5033696;28;20036;-83
2022/10/24 07:17:38;;;;;;;11.18;6.53;;;;;;;;;;5033609;28;20042;-82
2022/10/24 07:20:05;;;;;;;9.25;6.53;;;;;;;;;;5037230;28;20022;-83
2022/10/24 07:22:31;;;;;;;9.73;6.35;;;;;;;;;;5036507;28;20083;-83
2022/10/24 07:24:57;;;;;;;12.50;7.28;;;;;;;;;;5034570;28;20462;-84
2022/10/24 07:27:23;;;;;;;14.05;7.15;;;;;;;;;;5040088;28;20028;-82
2022/10/24 07:29:50;;;;;;;11.02;7.93;;;;;;;;;;5035971;28;20029;-85
2022/10/24 07:32:17;;;;;;;7.15;5.80;;;;;;;;;;5035705;28;20068;-84
2022/10/24 07:34:43;;;;;;;13.77;6.45;;;;;;;;;;5035395;28;20398;-84
2022/10/24 07:37:10;;;;;;;12.02;6.93;;;;;;;;;;5035172;28;20124;-83
2022/10/24 07:39:36;;;;;;;11.15;6.63;;;;;;;;;;5034525;28;20029;-81
2022/10/24 07:42:02;;;;;;;8.30;6.55;;;;;;;;;;5035818;28;20368;-86
2022/10/24 07:44:29;;;;;;;8.05;5.70;;;;;;;;;;5035296;28;20471;-82
2022/10/24 07:46:55;;;;;;;8.07;5.85;;;;;;;;;;5037856;28;20068;-83
2022/10/24 07:49:21;;;;;;;8.98;6.22;;;;;;;;;;5034592;28;20386;-83
2022/10/24 07:51:47;;;;;;;6.75;5.50;;;;;;;;;;5035376;28;20037;-82
2022/10/24 07:54:13;;;;;;;10.35;5.95;;;;;;;;;;5038194;28;20040;-82
2022/10/24 07:56:39;;;;;;;8.18;6.80;;;;;;;;;;5036425;28;20474;-81
2022/10/24 07:59:06;;;;;;;9.82;6.25;;;;;;;;;;5042929;28;20041;-83
2022/10/24 08:01:33;;;;;;;9.27;6.68;;;;;;;;;;5046957;28;20448;-84
2022/10/24 08:04:00;;;;;;;10.05;6.25;;;;;;;;;;5035694;28;20099;-83
2022/10/24 08:06:29;;;;;;;8.18;6.32;;;;;;;;;;5033867;28;20406;-82
2022/10/24 08:08:55;;;;;;;10.70;7.07;;;;;;;;;;5033109;28;20025;-84
2022/10/24 08:11:23;;;;;;;8.27;5.97;;;;;;;;;;5020725;28;20032;-83
2022/10/24 08:13:49;;;;;;;;;;;;;;;;;;5033147;28;20137;-85
2022/10/24 08:16:16;;;;;;;7.88;5.22;;;;;;;;;;5033813;28;20021;-83
2022/10/24 08:18:42;;;;;;;10.73;6.45;;;;;;;;;;5033811;28;20498;-83
2022/10/24 08:21:10;;;;;;;9.27;5.80;;;;;;;;;;5033814;28;20147;-84
2022/10/24 08:23:38;;;;;;;5.85;4.43;;;;;;;;;;5037103;28;20026;-82
2022/10/24 08:26:05;;;;;;;6.80;4.60;;;;;;;;;;5033976;28;20083;-82
2022/10/24 08:28:32;;;;;;;6.97;4.03;;;;;;;;;;5034231;28;20020;-82
2022/10/24 08:30:59;;;;;;;4.88;3.47;;;;;;;;;;5033049;28;20368;-82
2022/10/24 08:33:25;;;;;;;3.90;3.42;;;;;;;;;;5024900;28;20036;-83
2022/10/24 08:35:52;;;;;;;5.90;3.17;;;;;;;;;;5037816;28;20040;-83
2022/10/24 08:38:18;;;;;;;5.57;3.47;;;;;;;;;;5035797;28;20087;-84
2022/10/24 08:40:47;;;;;;;3.72;3.10;;;;;;;;;;5031821;28;20478;-82
2022/10/24 08:43:13;;;;;;;10.02;3.75;;;;;;;;;;5033156;28;20048;-83
2022/10/24 08:45:51;;;;;;;6.93;3.60;;;;;;;;;;5032719;28;20036;-83
2022/10/24 08:48:21;;;;;;;4.32;3.30;;;;;;;;;;5033571;28;20414;-82
2022/10/24 08:50:49;;;;;;;5.38;3.58;;;;;;;;;;5039191;28;20398;-81
2022/10/24 08:53:19;;;;;;;5.75;3.67;;;;;;;;;;5038916;28;20028;-84
2022/10/24 08:55:48;;;;;;;4.68;3.50;;;;;;;;;;5034636;28;20041;-82
2022/10/24 08:58:20;;;;;;;4.45;2.92;;;;;;;;;;5034113;28;20021;-82
2022/10/24 09:00:48;;;;;;;10.50;4.72;;;;;;;;;;5020183;28;20024;-84
2022/10/24 09:03:32;;;;;;;8.43;4.53;;;;;;;;;;5037876;28;20072;-83
2022/10/24 09:06:00;;;;;;;8.80;4.65;;;;;;;;;;5031327;28;20117;-83
2022/10/24 09:08:26;;;;;;;8.18;5.05;;;;;;;;;;5032843;28;20104;-81
2022/10/24 09:10:57;;;;;;;6.90;4.25;;;;;;;;;;5033301;28;20025;-83
2022/10/24 09:13:25;;;;;;;7.05;4.93;;;;;;;;;;5033335;28;20124;-83
2022/10/24 09:15:51;;;;;;;6.13;4.00;;;;;;;;;;5033605;28;20121;-84
2022/10/24 09:18:21;;;;;;;6.00;3.78;;;;;;;;;;5035083;28;20013;-83
2022/10/24 09:20:48;;;;;;;6.47;4.80;;;;;;;;;;5033185;28;20538;-80
2022/10/24 09:23:15;;;;;;;6.30;4.57;;;;;;;;;;5029236;28;20077;-83
2022/10/24 09:25:43;;;;;;;6.38;4.95;;;;;;;;;;5024696;28;20082;-82
2022/10/24 09:28:11;;;;;;;6.78;4.78;;;;;;;;;;5033341;28;20044;-84
2022/10/24 09:30:37;;;;;;;6.90;4.80;;;;;;;;;;5035561;28;20037;-82
2022/10/24 09:33:22;;;;;;;4.20;3.28;;;;;;;;;;5037727;28;20072;-82
2022/10/24 09:35:50;;;;;;;5.68;3.78;;;;;;;;;;5031835;28;20109;-82
2022/10/24 09:38:22;;;;;;;5.50;3.53;;;;;;;;;;5031648;28;20483;-84
2022/10/24 09:40:50;;;;;;;5.25;3.83;;;;;;;;;;5032818;28;20390;-83
2022/10/24 09:43:20;;;;;;;6.15;3.78;;;;;;;;;;5032817;28;20075;-82
2022/10/24 09:45:46;;;;;;;4.82;4.03;;;;;;;;;;5038101;28;20030;-83
2022/10/24 09:48:22;;;;;;;6.18;4.07;;;;;;;;;;5033018;28;20032;-83
2022/10/24 09:50:48;;;;;;;4.50;2.78;;;;;;;;;;5037610;28;20049;-81
2022/10/24 09:53:32;;;;;;;8.53;3.53;;;;;;;;;;5036989;28;20874;-82
2022/10/24 09:56:09;;;;;;;3.72;3.05;;;;;;;;;;5037482;28;20033;-82
2022/10/24 09:58:36;;;;;;;3.70;2.83;;;;;;;;;;5032179;28;20056;-81
2022/10/24 10:01:02;;;;;;;2.50;2.30;;;;;;;;;;5032418;28;20022;-86
2022/10/24 10:03:28;;;;;;;3.45;3.10;;;;;;;;;;5032324;28;20061;-84
2022/10/24 10:05:58;;;;;;;3.50;2.55;;;;;;;;;;5036054;28;20048;-84
2022/10/24 10:08:28;;;;;;;4.00;2.05;;;;;;;;;;5028637;28;20057;-84
2022/10/24 10:10:58;;;;;;;4.60;2.58;;;;;;;;;;5029125;28;20080;-85
2022/10/24 10:13:26;;;;;;;3.20;1.67;;;;;;;;;;5032927;28;20043;-83
2022/10/24 10:15:54;;;;;;;2.78;2.00;;;;;;;;;;5033747;28;20030;-83
2022/10/24 10:18:23;;;;;;;;;;;;;;;;;;5037152;28;20022;-82
2022/10/24 10:21:00;;;;;;;3.95;2.58;;;;;;;;;;5038208;28;19996;-84
2022/10/24 10:23:38;;;;;;;4.63;2.47;;;;;;;;;;5033121;28;20100;-83
2022/10/24 10:26:23;;;;;;;6.18;2.60;;;;;;;;;;5032843;28;20117;-85
2022/10/24 10:28:49;;;;;;;3.05;1.90;;;;;;;;;;5031767;28;20034;-85
2022/10/24 10:31:17;;;;;;;3.30;2.47;;;;;;;;;;5032170;28;20167;-83
2022/10/24 10:33:50;;;;;;;3.10;2.10;;;;;;;;;;5033449;28;20052;-82
2022/10/24 10:36:19;;;;;;;3.85;1.95;;;;;;;;;;5035972;28;20041;-84
2022/10/24 10:38:45;;;;;;;2.05;1.55;;;;;;;;;;5040096;28;20033;-83
2022/10/24 10:41:11;;;;;;;4.88;2.80;;;;;;;;;;5037149;28;20091;-82
2022/10/24 10:43:50;;;;;;;3.30;2.33;;;;;;;;;;5036321;28;20037;-84
2022/10/24 10:46:31;;;;;;;6.05;2.13;;;;;;;;;;5035641;28;20071;-83
2022/10/24 10:49:01;;;;;;;4.65;2.33;;;;;;;;;;5034618;28;20536;-82
2022/10/24 10:51:27;;;;;;;3.05;1.92;;;;;;;;;;5029090;28;20573;-83
2022/10/24 10:54:13;;;;;;;3.40;2.72;;;;;;;;;;5039232;28;20029;-82
2022/10/24 10:56:45;;;;;;;3.35;1.92;;;;;;;;;;5016876;28;20054;-84
2022/10/24 10:59:11;;;;;;;6.65;2.42;;;;;;;;;;5036474;28;20029;-81
2022/10/24 11:01:43;;;;;;;4.20;2.58;;;;;;;;;;5037411;28;20096;-84
2022/10/24 11:04:16;;;;;;;4.18;2.65;;;;;;;;;;5041012;28;20029;-81
2022/10/24 11:07:01;;;;;;;3.50;2.55;;;;;;;;;;5035634;28;20057;-83
2022/10/24 11:09:29;;;;;;;3.22;2.35;;;;;;;;;;5020599;28;20040;-83
2022/10/24 11:12:14;;;;;;;3.80;2.47;;;;;;;;;;5034114;28;20021;-84
2022/10/24 11:14:46;;;;;;;5.30;2.05;;;;;;;;;;5035003;28;20111;-83
2022/10/24 11:17:15;;;;;;;5.00;2.47;;;;;;;;;;5036283;28;20064;-84
2022/10/24 11:19:45;;;;;;;4.78;2.38;;;;;;;;;;5036158;28;20029;-84
2022/10/24 11:22:37;;;;;;;4.20;2.22;;;;;;;;;;5036165;28;20025;-84
2022/10/24 11:25:16;;;;;;;3.17;2.33;;;;;;;;;;5007345;28;20053;-83
2022/10/24 11:27:49;;;;;;;3.35;2.15;;;;;;;;;;5034740;28;20413;-84
2022/10/24 11:30:16;;;;;;;4.78;2.58;;;;;;;;;;5035755;28;20126;-83
2022/10/24 11:33:09;;;;;;;4.53;2.88;;;;;;;;;;5034777;28;20149;-82
2022/10/24 11:35:41;;;;;;;2.47;1.92;;;;;;;;;;4992951;28;20133;-83
2022/10/24 11:38:15;;;;;;;3.35;2.30;;;;;;;;;;4993707;28;20031;-83
2022/10/24 11:40:43;;;;;;;5.30;2.70;;;;;;;;;;4994189;28;20034;-85
2022/10/24 11:43:27;;;;;;;3.30;1.90;;;;;;;;;;4993242;28;20118;-82
2022/10/24 11:46:01;;;;;;;2.15;1.65;;;;;;;;;;4993550;28;20049;-81
2022/10/24 11:48:31;;;;;;;3.30;2.00;;;;;;;;;;4992783;28;20434;-83
2022/10/24 11:51:14;;;;;;;3.08;1.98;;;;;;;;;;4980566;28;20054;-83
2022/10/24 11:53:47;;;;;;;2.90;1.95;;;;;;;;;;4994977;28;20149;-84
2022/10/24 11:56:19;;;;;;;3.05;1.83;;;;;;;;;;4995443;28;20046;-82
2022/10/24 11:59:42;;;;;;;7.97;1.40;;;;;;;;;;4995448;28;20037;-82
2022/10/24 12:02:38;;;;;;;2.92;1.48;;;;;;;;;;4938164;29;20031;-82
2022/10/24 12:05:12;;;;;;;1.98;1.08;;;12.70;72.40;;;;;;4927822;29;20062;-82
2022/10/24 12:07:44;;;;;;;3.47;1.88;;;7.40;71.40;;;;;;4935709;29;20180;-82
2022/10/24 12:10:19;;;;;;;5.35;1.55;;;7.40;70.60;;;;;;4936612;29;20110;-84
2022/10/24 12:13:19;;;;;;;5.78;1.67;;;7.40;70.70;;;;;;4961888;28;20035;-82
2022/10/24 12:16:05;;;;;;;3.33;1.42;;;7.40;70.20;;;;;;4964392;28;20077;-84
2022/10/24 12:18:44;;;;;;;3.42;1.50;;;7.50;69.70;;;;;;4975174;28;20035;-82
2022/10/24 12:21:21;;;;;;;1.88;1.10;;;7.40;69.50;;;;;;4972809;28;20051;-84
2022/10/24 12:24:01;;;;;;;1.83;1.20;;;7.40;68.70;;;;;;4973823;28;20042;-82
2022/10/24 12:26:29;;;;;;;4.43;1.58;;;7.50;69.20;;;;;;4981620;28;20058;-84
2022/10/24 12:28:56;;;;;;;4.18;1.20;;;7.40;69.30;;;;;;4974746;28;20058;-82
2022/10/24 12:31:29;;;;;;;2.22;1.50;;;7.40;69.20;;;;;;4975555;28;20034;-82
2022/10/24 12:34:14;;;;;;;3.05;1.58;;;7.50;69.60;;;;;;5034429;28;20083;-86
2022/10/24 12:37:31;;;;;;;8.88;1.83;;;7.50;66.50;;;;;;5040596;28;20061;-84
2022/10/24 12:39:57;;;;;;;1.58;1.00;;;7.60;63.90;;;;;;5012532;28;20165;-81
2022/10/24 12:42:23;;;;;;;2.17;1.02;;;7.40;60.70;;;;;;5025692;28;20462;-83
2022/10/24 12:44:50;;;;;;;1.25;1.08;;;7.40;60.80;;;;;;5035088;28;20101;-82
2022/10/24 12:47:33;;;;;;;1.27;0.63;;;7.60;61.20;;;;;;5034925;28;20044;-83
2022/10/24 12:50:21;;;;;;;5.05;1.40;;;7.60;61.30;;;;;;5036128;28;20046;-82
2022/10/24 12:52:46;;;;;;;;;;;7.50;61.60;;;;;;5035411;28;20025;-84
2022/10/24 12:55:37;;;;;;;3.67;1.08;;;7.40;62.60;;;;;;5050444;28;19928;-82
2022/10/24 12:58:29;;;;;;;3.00;1.20;;;7.30;63.20;;;;;;5043615;28;20068;-82
2022/10/24 13:01:04;;;;;;;3.78;1.52;;;7.30;63.90;;;;;;5022881;28;20020;-84
2022/10/24 13:04:17;;;;;;;1.08;0.90;;;7.30;64.30;;;;;;5029624;28;20144;-84
2022/10/24 13:07:27;;;;;;;4.65;0.90;;;7.30;65.00;;;;;;5011885;28;20034;-83
2022/10/24 13:10:02;;;;;;;2.47;1.48;;;7.20;64.90;;;;;;5037632;28;20049;-83
2022/10/24 13:12:43;;;;;;;3.15;1.70;;;7.20;65.40;;;;;;5034389;28;20029;-83
2022/10/24 13:15:25;;;;;;;3.25;1.40;;;7.20;66.00;;;;;;5035585;28;20754;-82
2022/10/24 13:18:03;;;;;;;4.13;1.88;;;7.20;66.10;;;;;;5033646;28;20038;-84
2022/10/24 13:20:38;;;;;;;1.95;1.15;;;7.20;66.30;;;;;;5034650;28;20029;-82
2022/10/24 13:23:34;;;;;;;2.15;1.25;;;7.10;66.10;;;;;;5033061;28;20017;-84
2022/10/24 13:26:01;;;;;;;3.10;1.30;;;7.10;66.50;;;;;;5024007;28;20091;-82
2022/10/24 13:28:38;;;;;;;3.53;1.90;;;7.10;66.80;;;;;;5020654;28;20032;-84
2022/10/24 13:31:04;;;;;;;3.72;1.98;;;7.00;66.60;;;;;;5032298;28;20021;-83
2022/10/24 13:33:35;;;;;;;3.08;1.60;;;7.00;67.00;;;;;;5031827;28;20402;-83
2022/10/24 13:36:22;;;;;;;5.25;1.60;;;7.00;66.80;;;;;;5032794;28;20541;-84
2022/10/24 13:38:51;;;;;;;6.72;1.88;;;7.00;67.50;;;;;;5033033;28;20033;-83
2022/10/24 13:41:38;;;;;;;3.65;1.70;;;6.90;68.00;;;;;;5031266;28;20117;-84
2022/10/24 13:44:28;;;;;;;5.25;1.38;;;6.90;67.90;;;;;;5024352;28;20028;-84
2022/10/24 13:47:12;;;;;;;5.57;1.58;;;6.90;68.20;;;;;;5032852;28;20072;-83
2022/10/24 13:50:25;;;;;;;6.60;1.63;;;6.90;68.60;;;;;;5034530;28;20026;-82
2022/10/24 13:52:58;;;;;;;2.83;1.55;;;6.80;69.00;;;;;;5020370;28;20136;-84
2022/10/24 13:55:32;;;;;;;5.00;1.88;;;6.80;69.10;;;;;;5031058;28;20088;-82
2022/10/24 13:58:09;;;;;;;5.60;1.52;;;6.80;69.00;;;;;;5029578;28;20041;-82
2022/10/24 14:00:38;;;;;;;13.20;4.80;;;6.80;68.60;;;;;;5029522;28;20029;-81
2022/10/24 14:03:16;;;;;;;3.25;1.60;;;6.70;68.40;;;;;;5034707;28;20060;-83
2022/10/24 14:05:49;;;;;;;;;;;6.70;68.30;;;;;;5034588;28;20017;-82
2022/10/24 14:08:48;;;;;;;4.78;1.40;;;;;;;;;;5039732;28;20007;-83
2022/10/24 14:11:17;;;;;;;6.63;1.98;;;;;;;;;;5017222;28;20037;-82
2022/10/24 14:13:48;;;;;;;6.60;1.75;;;6.70;68.70;;;;;;5036785;28;20017;-82
2022/10/24 14:16:14;;;;;;;4.50;1.65;;;6.60;68.70;;;;;;5036412;28;20048;-84
2022/10/24 14:18:41;;;;;;;2.92;1.55;;;6.60;68.50;;;;;;5036760;28;20048;-83
2022/10/24 14:21:20;;;;;;;4.45;2.38;;;6.60;69.00;;;;;;5035175;28;20030;-83
2022/10/24 14:23:55;;;;;;;2.50;1.13;;;6.50;69.20;;;;;;5035657;28;20462;-83
2022/10/24 14:26:22;;;;;;;7.75;1.88;;;6.40;69.10;;;;;;5036304;28;20021;-81
2022/10/24 14:28:57;;;;;;;3.10;1.27;;;6.40;68.90;;;;;;5036285;28;20104;-83
2022/10/24 14:31:29;;;;;;;2.42;1.23;;;6.50;68.50;;;;;;5034980;28;20018;-83
2022/10/24 14:33:57;;;;;;;3.58;1.55;;;6.50;68.20;;;;;;5036929;28;20052;-82
2022/10/24 14:36:30;;;;;;;5.10;1.88;;;6.50;68.60;;;;;;5036308;28;20033;-84